sensor_id;sensor_type;location;lat;lon;timestamp;temperature;humidity
3281;DHT22;1652;51.318;6.202;2022-08-14T00:02:00;21.30;3.70
3281;DHT22;1652;51.318;6.202;2022-08-14T00:04:30;21.20;1.00
3281;DHT22;1652;51.318;6.202;2022-08-14T00:07:10;21.40;1.00
3281;DHT22;1652;51.318;6.202;2022-08-14T00:09:41;21.40;1.00
3281;DHT22;1652;51.318;6.202;2022-08-14T00:12:28;21.40;1.00
3281;DHT22;1652;51.318;6.202;2022-08-14T00:15:30;21.40;1.00
3281;DHT22;1652;51.318;6.202;2022-08-14T00:18:13;21.40;1.00
3281;DHT22;1652;51.318;6.202;2022-08-14T00:21:00;21.40;1.00
3281;DHT22;1652;51.318;6.202;2022-08-14T00:23:28;21.40;1.00
3281;DHT22;1652;51.318;6.202;2022-08-14T00:25:55;21.30;1.00
3281;DHT22;1652;51.318;6.202;2022-08-14T00:28:33;21.30;1.00
3281;DHT22;1652;51.318;6.202;2022-08-14T00:31:01;21.40;1.00
3281;DHT22;1652;51.318;6.202;2022-08-14T00:33:30;21.40;1.00
3281;DHT22;1652;51.318;6.202;2022-08-14T00:36:17;21.40;1.00
3281;DHT22;1652;51.318;6.202;2022-08-14T00:39:04;21.40;1.00
3281;DHT22;1652;51.318;6.202;2022-08-14T00:41:33;21.40;1.00
3281;DHT22;1652;51.318;6.202;2022-08-14T00:44:00;21.40;1.00
3281;DHT22;1652;51.318;6.202;2022-08-14T00:46:27;21.40;1.00
3281;DHT22;1652;51.318;6.202;2022-08-14T00:48:59;21.50;1.00
3281;DHT22;1652;51.318;6.202;2022-08-14T00:51:28;21.50;1.00
3281;DHT22;1652;51.318;6.202;2022-08-14T00:54:05;21.60;1.00
3281;DHT22;1652;51.318;6.202;2022-08-14T00:56:51;21.60;1.00
3281;DHT22;1652;51.318;6.202;2022-08-14T00:59:25;21.50;1.00
3281;DHT22;1652;51.318;6.202;2022-08-14T01:01:57;21.40;1.00
3281;DHT22;1652;51.318;6.202;2022-08-14T01:04:26;21.30;1.00
3281;DHT22;1652;51.318;6.202;2022-08-14T01:07:14;21.20;1.60
3281;DHT22;1652;51.318;6.202;2022-08-14T01:10:00;21.20;99.90
3281;DHT22;1652;51.318;6.202;2022-08-14T01:12:29;21.10;99.90
3281;DHT22;1652;51.318;6.202;2022-08-14T01:14:58;21.10;99.90
3281;DHT22;1652;51.318;6.202;2022-08-14T01:17:29;21.10;99.90
3281;DHT22;1652;51.318;6.202;2022-08-14T01:20:18;21.10;99.90
3281;DHT22;1652;51.318;6.202;2022-08-14T01:23:09;21.10;99.90
3281;DHT22;1652;51.318;6.202;2022-08-14T01:25:48;21.20;99.90
3281;DHT22;1652;51.318;6.202;2022-08-14T01:28:18;21.30;99.90
3281;DHT22;1652;51.318;6.202;2022-08-14T01:31:12;21.30;99.90
3281;DHT22;1652;51.318;6.202;2022-08-14T01:33:42;21.30;99.90
3281;DHT22;1652;51.318;6.202;2022-08-14T01:36:28;21.30;99.90
3281;DHT22;1652;51.318;6.202;2022-08-14T01:39:12;21.40;99.90
3281;DHT22;1652;51.318;6.202;2022-08-14T01:41:42;21.40;99.90
3281;DHT22;1652;51.318;6.202;2022-08-14T01:44:13;21.50;99.90
3281;DHT22;1652;51.318;6.202;2022-08-14T01:47:05;21.50;99.90
3281;DHT22;1652;51.318;6.202;2022-08-14T01:49:47;21.40;99.90
3281;DHT22;1652;51.318;6.202;2022-08-14T01:52:31;21.50;99.90
3281;DHT22;1652;51.318;6.202;2022-08-14T01:55:18;21.60;99.90
3281;DHT22;1652;51.318;6.202;2022-08-14T01:57:45;21.60;99.90
3281;DHT22;1652;51.318;6.202;2022-08-14T02:00:28;21.60;99.90
3281;DHT22;1652;51.318;6.202;2022-08-14T02:03:01;21.60;99.90
3281;DHT22;1652;51.318;6.202;2022-08-14T02:05:28;21.70;99.90
3281;DHT22;1652;51.318;6.202;2022-08-14T02:08:05;21.60;99.90
3281;DHT22;1652;51.318;6.202;2022-08-14T02:10:37;21.60;99.90
3281;DHT22;1652;51.318;6.202;2022-08-14T02:13:14;21.50;99.90
3281;DHT22;1652;51.318;6.202;2022-08-14T02:15:43;21.40;99.90
3281;DHT22;1652;51.318;6.202;2022-08-14T02:18:14;21.30;1.00
3281;DHT22;1652;51.318;6.202;2022-08-14T02:20:44;21.00;50.90
3281;DHT22;1652;51.318;6.202;2022-08-14T02:23:13;20.80;99.90
3281;DHT22;1652;51.318;6.202;2022-08-14T02:25:41;20.60;1.00
3281;DHT22;1652;51.318;6.202;2022-08-14T02:28:20;20.60;1.00
3281;DHT22;1652;51.318;6.202;2022-08-14T02:31:07;20.50;42.70
3281;DHT22;1652;51.318;6.202;2022-08-14T02:33:34;20.50;99.90
3281;DHT22;1652;51.318;6.202;2022-08-14T02:36:05;20.40;1.00
3281;DHT22;1652;51.318;6.202;2022-08-14T02:38:52;20.30;1.00
3281;DHT22;1652;51.318;6.202;2022-08-14T02:41:19;20.40;1.00
3281;DHT22;1652;51.318;6.202;2022-08-14T02:43:46;20.50;99.90
3281;DHT22;1652;51.318;6.202;2022-08-14T02:46:14;20.60;99.90
3281;DHT22;1652;51.318;6.202;2022-08-14T02:48:50;20.50;99.90
3281;DHT22;1652;51.318;6.202;2022-08-14T02:51:30;20.70;1.00
3281;DHT22;1652;51.318;6.202;2022-08-14T02:53:59;20.70;1.00
3281;DHT22;1652;51.318;6.202;2022-08-14T02:56:29;20.60;99.90
3281;DHT22;1652;51.318;6.202;2022-08-14T02:59:16;20.60;10.50
3281;DHT22;1652;51.318;6.202;2022-08-14T03:01:44;20.50;1.00
3281;DHT22;1652;51.318;6.202;2022-08-14T03:04:20;20.60;1.00
3281;DHT22;1652;51.318;6.202;2022-08-14T03:06:48;20.60;99.90
3281;DHT22;1652;51.318;6.202;2022-08-14T03:09:35;20.60;99.90
3281;DHT22;1652;51.318;6.202;2022-08-14T03:12:22;20.40;1.00
3281;DHT22;1652;51.318;6.202;2022-08-14T03:14:59;20.20;14.40
3281;DHT22;1652;51.318;6.202;2022-08-14T03:17:28;20.30;1.00
3281;DHT22;1652;51.318;6.202;2022-08-14T03:20:07;20.40;1.00
3281;DHT22;1652;51.318;6.202;2022-08-14T03:22:37;20.40;1.00
3281;DHT22;1652;51.318;6.202;2022-08-14T03:25:08;20.50;1.00
3281;DHT22;1652;51.318;6.202;2022-08-14T03:27:37;20.50;1.00
3281;DHT22;1652;51.318;6.202;2022-08-14T03:30:25;20.50;99.90
3281;DHT22;1652;51.318;6.202;2022-08-14T03:33:08;20.50;1.00
3281;DHT22;1652;51.318;6.202;2022-08-14T03:38:33;20.20;1.00
3281;DHT22;1652;51.318;6.202;2022-08-14T03:41:22;20.30;99.90
3281;DHT22;1652;51.318;6.202;2022-08-14T03:43:53;20.30;99.90
3281;DHT22;1652;51.318;6.202;2022-08-14T03:46:30;20.30;99.90
3281;DHT22;1652;51.318;6.202;2022-08-14T03:49:20;20.30;33.40
3281;DHT22;1652;51.318;6.202;2022-08-14T03:51:56;20.30;99.90
3281;DHT22;1652;51.318;6.202;2022-08-14T03:54:27;20.20;1.00
3281;DHT22;1652;51.318;6.202;2022-08-14T03:56:54;20.30;1.00
3281;DHT22;1652;51.318;6.202;2022-08-14T03:59:29;20.10;1.00
3281;DHT22;1652;51.318;6.202;2022-08-14T04:01:57;20.10;99.90
3281;DHT22;1652;51.318;6.202;2022-08-14T04:04:31;19.90;99.90
3281;DHT22;1652;51.318;6.202;2022-08-14T04:06:59;19.90;1.00
3281;DHT22;1652;51.318;6.202;2022-08-14T04:09:26;19.80;99.90
3281;DHT22;1652;51.318;6.202;2022-08-14T04:11:54;19.70;99.90
3281;DHT22;1652;51.318;6.202;2022-08-14T04:14:25;19.60;1.00
3281;DHT22;1652;51.318;6.202;2022-08-14T04:16:52;19.60;1.00
3281;DHT22;1652;51.318;6.202;2022-08-14T04:19:19;19.70;1.00
3281;DHT22;1652;51.318;6.202;2022-08-14T04:21:50;19.80;99.90
3281;DHT22;1652;51.318;6.202;2022-08-14T04:24:33;19.80;23.90
3281;DHT22;1652;51.318;6.202;2022-08-14T04:27:11;19.80;99.90
3281;DHT22;1652;51.318;6.202;2022-08-14T04:29:42;19.80;99.90
3281;DHT22;1652;51.318;6.202;2022-08-14T04:32:11;19.80;1.00
3281;DHT22;1652;51.318;6.202;2022-08-14T04:34:59;19.80;99.90
3281;DHT22;1652;51.318;6.202;2022-08-14T04:37:26;19.90;1.00
3281;DHT22;1652;51.318;6.202;2022-08-14T04:40:19;19.90;28.90
3281;DHT22;1652;51.318;6.202;2022-08-14T04:43:07;19.90;1.00
3281;DHT22;1652;51.318;6.202;2022-08-14T04:46:11;19.90;1.00
3281;DHT22;1652;51.318;6.202;2022-08-14T04:48:58;20.00;99.90
3281;DHT22;1652;51.318;6.202;2022-08-14T04:51:26;20.10;99.90
3281;DHT22;1652;51.318;6.202;2022-08-14T04:53:56;20.10;99.90
3281;DHT22;1652;51.318;6.202;2022-08-14T04:56:24;20.10;1.00
3281;DHT22;1652;51.318;6.202;2022-08-14T04:59:02;20.10;1.00
3281;DHT22;1652;51.318;6.202;2022-08-14T05:01:38;20.20;1.00
3281;DHT22;1652;51.318;6.202;2022-08-14T05:04:13;20.20;1.00
3281;DHT22;1652;51.318;6.202;2022-08-14T05:06:46;20.40;1.00
3281;DHT22;1652;51.318;6.202;2022-08-14T05:09:15;20.40;99.90
3281;DHT22;1652;51.318;6.202;2022-08-14T05:11:43;20.40;87.80
3281;DHT22;1652;51.318;6.202;2022-08-14T05:14:10;20.50;1.00
3281;DHT22;1652;51.318;6.202;2022-08-14T05:16:58;20.50;1.00
3281;DHT22;1652;51.318;6.202;2022-08-14T05:19:28;20.60;99.90
3281;DHT22;1652;51.318;6.202;2022-08-14T05:21:57;20.60;99.90
3281;DHT22;1652;51.318;6.202;2022-08-14T05:24:44;20.70;99.90
3281;DHT22;1652;51.318;6.202;2022-08-14T05:27:16;20.80;1.00
3281;DHT22;1652;51.318;6.202;2022-08-14T05:29:50;21.00;1.00
3281;DHT22;1652;51.318;6.202;2022-08-14T05:32:19;21.10;1.00
3281;DHT22;1652;51.318;6.202;2022-08-14T05:34:46;21.60;1.00
3281;DHT22;1652;51.318;6.202;2022-08-14T05:37:13;22.40;1.00
3281;DHT22;1652;51.318;6.202;2022-08-14T05:39:43;23.50;99.90
3281;DHT22;1652;51.318;6.202;2022-08-14T05:42:10;24.40;1.00
3281;DHT22;1652;51.318;6.202;2022-08-14T05:44:52;24.90;1.00
3281;DHT22;1652;51.318;6.202;2022-08-14T05:47:21;25.40;99.90
3281;DHT22;1652;51.318;6.202;2022-08-14T05:49:49;25.90;99.90
3281;DHT22;1652;51.318;6.202;2022-08-14T05:52:17;26.30;99.90
3281;DHT22;1652;51.318;6.202;2022-08-14T05:55:08;26.70;98.00
3281;DHT22;1652;51.318;6.202;2022-08-14T05:58:05;26.80;59.90
3281;DHT22;1652;51.318;6.202;2022-08-14T06:00:39;27.20;11.00
3281;DHT22;1652;51.318;6.202;2022-08-14T06:03:13;27.60;1.00
3281;DHT22;1652;51.318;6.202;2022-08-14T06:05:44;27.80;1.00
3281;DHT22;1652;51.318;6.202;2022-08-14T06:11:06;28.30;1.00
3281;DHT22;1652;51.318;6.202;2022-08-14T06:13:42;28.50;1.00
3281;DHT22;1652;51.318;6.202;2022-08-14T06:16:14;28.80;1.00
3281;DHT22;1652;51.318;6.202;2022-08-14T06:18:45;29.30;1.00
3281;DHT22;1652;51.318;6.202;2022-08-14T06:21:13;29.60;1.00
3281;DHT22;1652;51.318;6.202;2022-08-14T06:23:43;29.60;1.00
3281;DHT22;1652;51.318;6.202;2022-08-14T06:26:14;29.80;1.00
3281;DHT22;1652;51.318;6.202;2022-08-14T06:28:46;30.00;1.00
3281;DHT22;1652;51.318;6.202;2022-08-14T06:31:18;30.10;1.00
3281;DHT22;1652;51.318;6.202;2022-08-14T06:33:46;30.70;1.00
3281;DHT22;1652;51.318;6.202;2022-08-14T06:36:33;31.00;1.00
3281;DHT22;1652;51.318;6.202;2022-08-14T06:39:01;30.50;1.00
3281;DHT22;1652;51.318;6.202;2022-08-14T06:41:28;30.60;1.00
3281;DHT22;1652;51.318;6.202;2022-08-14T06:44:15;30.50;1.00
3281;DHT22;1652;51.318;6.202;2022-08-14T06:46:42;30.70;1.00
3281;DHT22;1652;51.318;6.202;2022-08-14T06:49:15;30.80;1.00
3281;DHT22;1652;51.318;6.202;2022-08-14T06:51:42;31.10;1.00
3281;DHT22;1652;51.318;6.202;2022-08-14T06:54:15;31.40;1.00
3281;DHT22;1652;51.318;6.202;2022-08-14T06:56:42;31.50;1.00
3281;DHT22;1652;51.318;6.202;2022-08-14T06:59:20;31.80;1.00
3281;DHT22;1652;51.318;6.202;2022-08-14T07:01:47;31.80;1.00
3281;DHT22;1652;51.318;6.202;2022-08-14T07:04:39;32.10;1.00
3281;DHT22;1652;51.318;6.202;2022-08-14T07:07:24;32.60;1.00
3281;DHT22;1652;51.318;6.202;2022-08-14T07:09:54;32.90;1.00
3281;DHT22;1652;51.318;6.202;2022-08-14T07:12:21;32.90;1.00
3281;DHT22;1652;51.318;6.202;2022-08-14T07:15:09;32.80;1.00
3281;DHT22;1652;51.318;6.202;2022-08-14T07:17:47;32.80;1.00
3281;DHT22;1652;51.318;6.202;2022-08-14T07:20:19;33.10;1.00
3281;DHT22;1652;51.318;6.202;2022-08-14T07:23:07;33.40;1.00
3281;DHT22;1652;51.318;6.202;2022-08-14T07:25:39;33.70;1.00
3281;DHT22;1652;51.318;6.202;2022-08-14T07:28:13;33.20;1.00
3281;DHT22;1652;51.318;6.202;2022-08-14T07:30:47;33.20;1.00
3281;DHT22;1652;51.318;6.202;2022-08-14T07:33:18;33.10;1.00
3281;DHT22;1652;51.318;6.202;2022-08-14T07:35:55;33.50;1.00
3281;DHT22;1652;51.318;6.202;2022-08-14T07:38:25;33.70;1.00
3281;DHT22;1652;51.318;6.202;2022-08-14T07:40:59;33.80;1.00
3281;DHT22;1652;51.318;6.202;2022-08-14T07:43:26;34.00;1.00
3281;DHT22;1652;51.318;6.202;2022-08-14T07:45:54;33.90;1.00
3281;DHT22;1652;51.318;6.202;2022-08-14T07:48:21;33.20;1.00
3281;DHT22;1652;51.318;6.202;2022-08-14T07:50:51;32.70;1.00
3281;DHT22;1652;51.318;6.202;2022-08-14T07:53:28;32.40;1.00
3281;DHT22;1652;51.318;6.202;2022-08-14T07:55:59;32.50;1.00
3281;DHT22;1652;51.318;6.202;2022-08-14T07:58:46;32.90;1.00
3281;DHT22;1652;51.318;6.202;2022-08-14T08:01:18;33.00;1.00
3281;DHT22;1652;51.318;6.202;2022-08-14T08:03:46;33.10;1.00
3281;DHT22;1652;51.318;6.202;2022-08-14T08:06:17;33.10;1.00
3281;DHT22;1652;51.318;6.202;2022-08-14T08:08:45;33.10;1.00
3281;DHT22;1652;51.318;6.202;2022-08-14T08:11:32;33.20;1.00
3281;DHT22;1652;51.318;6.202;2022-08-14T08:14:04;33.30;1.00
3281;DHT22;1652;51.318;6.202;2022-08-14T08:16:44;33.40;1.00
3281;DHT22;1652;51.318;6.202;2022-08-14T08:19:17;33.50;1.00
3281;DHT22;1652;51.318;6.202;2022-08-14T08:21:45;33.30;1.00
3281;DHT22;1652;51.318;6.202;2022-08-14T08:24:13;33.50;1.00
3281;DHT22;1652;51.318;6.202;2022-08-14T08:26:47;33.90;1.00
3281;DHT22;1652;51.318;6.202;2022-08-14T08:29:21;33.90;1.00
3281;DHT22;1652;51.318;6.202;2022-08-14T08:31:55;33.70;1.00
3281;DHT22;1652;51.318;6.202;2022-08-14T08:34:28;33.70;1.00
3281;DHT22;1652;51.318;6.202;2022-08-14T08:36:57;33.70;1.00
3281;DHT22;1652;51.318;6.202;2022-08-14T08:39:28;33.60;1.00
3281;DHT22;1652;51.318;6.202;2022-08-14T08:42:24;33.70;1.00
3281;DHT22;1652;51.318;6.202;2022-08-14T08:45:05;33.60;1.00
3281;DHT22;1652;51.318;6.202;2022-08-14T08:47:39;33.30;1.00
3281;DHT22;1652;51.318;6.202;2022-08-14T08:50:16;33.10;1.00
3281;DHT22;1652;51.318;6.202;2022-08-14T08:52:52;33.30;1.00
3281;DHT22;1652;51.318;6.202;2022-08-14T08:57:57;33.40;1.00
3281;DHT22;1652;51.318;6.202;2022-08-14T09:00:25;33.20;1.00
3281;DHT22;1652;51.318;6.202;2022-08-14T09:02:58;33.20;1.00
3281;DHT22;1652;51.318;6.202;2022-08-14T09:05:29;33.40;1.00
3281;DHT22;1652;51.318;6.202;2022-08-14T09:08:15;33.60;1.00
3281;DHT22;1652;51.318;6.202;2022-08-14T09:10:58;33.20;1.00
3281;DHT22;1652;51.318;6.202;2022-08-14T09:13:26;32.90;1.00
3281;DHT22;1652;51.318;6.202;2022-08-14T09:15:56;32.70;1.00
3281;DHT22;1652;51.318;6.202;2022-08-14T09:18:23;32.60;1.00
3281;DHT22;1652;51.318;6.202;2022-08-14T09:20:54;33.00;1.00
3281;DHT22;1652;51.318;6.202;2022-08-14T09:23:24;32.90;1.00
3281;DHT22;1652;51.318;6.202;2022-08-14T09:26:11;32.80;1.00
3281;DHT22;1652;51.318;6.202;2022-08-14T09:28:47;32.90;1.00
3281;DHT22;1652;51.318;6.202;2022-08-14T09:31:16;32.80;1.00
3281;DHT22;1652;51.318;6.202;2022-08-14T09:33:54;32.10;1.00
3281;DHT22;1652;51.318;6.202;2022-08-14T09:39:50;30.70;1.00
3281;DHT22;1652;51.318;6.202;2022-08-14T09:45:47;30.40;1.00
3281;DHT22;1652;51.318;6.202;2022-08-14T09:48:23;30.30;1.00
3281;DHT22;1652;51.318;6.202;2022-08-14T09:50:58;30.20;1.00
3281;DHT22;1652;51.318;6.202;2022-08-14T09:53:42;30.10;1.00
3281;DHT22;1652;51.318;6.202;2022-08-14T09:56:30;30.00;1.00
3281;DHT22;1652;51.318;6.202;2022-08-14T09:59:13;30.00;1.00
3281;DHT22;1652;51.318;6.202;2022-08-14T10:01:43;30.00;1.00
3281;DHT22;1652;51.318;6.202;2022-08-14T10:04:24;29.90;1.00
3281;DHT22;1652;51.318;6.202;2022-08-14T10:07:02;29.80;1.00
3281;DHT22;1652;51.318;6.202;2022-08-14T10:09:29;29.60;1.00
3281;DHT22;1652;51.318;6.202;2022-08-14T10:55:34;29.70;1.00
3281;DHT22;1652;51.318;6.202;2022-08-14T10:58:11;29.90;1.00
3281;DHT22;1652;51.318;6.202;2022-08-14T11:00:41;29.90;1.00
3281;DHT22;1652;51.318;6.202;2022-08-14T11:03:23;29.90;1.00
3281;DHT22;1652;51.318;6.202;2022-08-14T11:06:13;29.90;1.00
3281;DHT22;1652;51.318;6.202;2022-08-14T11:08:44;29.90;1.00
3281;DHT22;1652;51.318;6.202;2022-08-14T11:11:11;30.10;1.00
3281;DHT22;1652;51.318;6.202;2022-08-14T11:13:40;30.20;1.00
3281;DHT22;1652;51.318;6.202;2022-08-14T11:16:10;30.10;1.00
3281;DHT22;1652;51.318;6.202;2022-08-14T11:18:44;30.10;1.00
3281;DHT22;1652;51.318;6.202;2022-08-14T11:21:18;30.10;1.00
3281;DHT22;1652;51.318;6.202;2022-08-14T11:23:48;30.10;1.00
3281;DHT22;1652;51.318;6.202;2022-08-14T11:26:24;30.10;1.00
3281;DHT22;1652;51.318;6.202;2022-08-14T11:28:57;30.10;1.00
3281;DHT22;1652;51.318;6.202;2022-08-14T11:31:27;30.10;1.00
3281;DHT22;1652;51.318;6.202;2022-08-14T11:34:04;30.30;1.00
3281;DHT22;1652;51.318;6.202;2022-08-14T11:36:51;30.30;1.00
3281;DHT22;1652;51.318;6.202;2022-08-14T11:39:38;30.20;1.00
3281;DHT22;1652;51.318;6.202;2022-08-14T11:42:07;30.40;1.00
3281;DHT22;1652;51.318;6.202;2022-08-14T11:45:04;30.50;1.00
3281;DHT22;1652;51.318;6.202;2022-08-14T11:47:43;30.50;1.00
3281;DHT22;1652;51.318;6.202;2022-08-14T11:50:33;30.50;1.00
3281;DHT22;1652;51.318;6.202;2022-08-14T11:53:04;30.40;1.00
3281;DHT22;1652;51.318;6.202;2022-08-14T11:55:34;30.30;1.00
3281;DHT22;1652;51.318;6.202;2022-08-14T11:58:09;30.30;1.00
3281;DHT22;1652;51.318;6.202;2022-08-14T12:00:53;30.30;1.00
3281;DHT22;1652;51.318;6.202;2022-08-14T12:03:20;30.20;1.00
3281;DHT22;1652;51.318;6.202;2022-08-14T12:06:14;30.20;1.00
3281;DHT22;1652;51.318;6.202;2022-08-14T12:09:02;30.30;1.00
3281;DHT22;1652;51.318;6.202;2022-08-14T12:11:39;30.30;1.00
3281;DHT22;1652;51.318;6.202;2022-08-14T12:14:11;30.20;1.00
3281;DHT22;1652;51.318;6.202;2022-08-14T12:19:50;30.40;1.00
3281;DHT22;1652;51.318;6.202;2022-08-14T12:22:43;30.40;1.00
3281;DHT22;1652;51.318;6.202;2022-08-14T12:25:20;30.50;1.00
3281;DHT22;1652;51.318;6.202;2022-08-14T12:27:52;30.50;1.00
3281;DHT22;1652;51.318;6.202;2022-08-14T12:33:25;30.60;1.00
3281;DHT22;1652;51.318;6.202;2022-08-14T12:35:58;30.50;1.00
3281;DHT22;1652;51.318;6.202;2022-08-14T12:38:38;30.30;1.00
3281;DHT22;1652;51.318;6.202;2022-08-14T12:41:12;30.30;1.00
3281;DHT22;1652;51.318;6.202;2022-08-14T12:43:52;30.40;1.00
3281;DHT22;1652;51.318;6.202;2022-08-14T12:46:27;30.50;1.00
3281;DHT22;1652;51.318;6.202;2022-08-14T12:48:57;30.40;1.00
3281;DHT22;1652;51.318;6.202;2022-08-14T12:51:26;30.50;1.00
3281;DHT22;1652;51.318;6.202;2022-08-14T12:53:55;30.50;1.00
3281;DHT22;1652;51.318;6.202;2022-08-14T12:56:26;30.50;1.00
3281;DHT22;1652;51.318;6.202;2022-08-14T12:59:00;30.50;1.00
3281;DHT22;1652;51.318;6.202;2022-08-14T13:01:30;30.50;1.00
3281;DHT22;1652;51.318;6.202;2022-08-14T13:04:17;30.70;1.00
3281;DHT22;1652;51.318;6.202;2022-08-14T13:06:46;30.80;1.00
3281;DHT22;1652;51.318;6.202;2022-08-14T13:09:18;30.60;1.00
3281;DHT22;1652;51.318;6.202;2022-08-14T13:11:50;30.50;1.00
3281;DHT22;1652;51.318;6.202;2022-08-14T13:14:24;30.40;1.00
3281;DHT22;1652;51.318;6.202;2022-08-14T13:16:56;30.50;1.00
3281;DHT22;1652;51.318;6.202;2022-08-14T13:19:25;30.50;1.00
3281;DHT22;1652;51.318;6.202;2022-08-14T13:21:54;30.60;1.00
3281;DHT22;1652;51.318;6.202;2022-08-14T13:24:37;30.60;1.00
3281;DHT22;1652;51.318;6.202;2022-08-14T13:27:05;30.70;1.00
3281;DHT22;1652;51.318;6.202;2022-08-14T13:29:39;30.90;1.00
3281;DHT22;1652;51.318;6.202;2022-08-14T13:32:13;30.90;1.00
3281;DHT22;1652;51.318;6.202;2022-08-14T13:34:41;30.90;1.00
3281;DHT22;1652;51.318;6.202;2022-08-14T13:37:13;30.90;1.00
3281;DHT22;1652;51.318;6.202;2022-08-14T13:39:47;30.80;1.00
3281;DHT22;1652;51.318;6.202;2022-08-14T13:42:24;30.80;1.00
3281;DHT22;1652;51.318;6.202;2022-08-14T13:45:01;30.90;1.00
3281;DHT22;1652;51.318;6.202;2022-08-14T13:47:30;30.80;1.00
3281;DHT22;1652;51.318;6.202;2022-08-14T13:50:00;30.90;1.00
3281;DHT22;1652;51.318;6.202;2022-08-14T13:52:50;31.00;1.00
3281;DHT22;1652;51.318;6.202;2022-08-14T13:55:31;31.00;1.00
3281;DHT22;1652;51.318;6.202;2022-08-14T13:58:01;31.00;1.00
3281;DHT22;1652;51.318;6.202;2022-08-14T14:00:35;31.00;1.00
3281;DHT22;1652;51.318;6.202;2022-08-14T14:03:22;31.00;1.00
3281;DHT22;1652;51.318;6.202;2022-08-14T14:05:52;31.00;1.00
3281;DHT22;1652;51.318;6.202;2022-08-14T14:08:21;31.00;1.00
3281;DHT22;1652;51.318;6.202;2022-08-14T14:11:08;31.00;1.00
3281;DHT22;1652;51.318;6.202;2022-08-14T14:13:36;31.00;1.00
3281;DHT22;1652;51.318;6.202;2022-08-14T14:16:11;30.90;1.00
3281;DHT22;1652;51.318;6.202;2022-08-14T14:18:49;31.00;1.00
3281;DHT22;1652;51.318;6.202;2022-08-14T14:21:19;31.10;1.00
3281;DHT22;1652;51.318;6.202;2022-08-14T14:23:47;31.00;1.00
3281;DHT22;1652;51.318;6.202;2022-08-14T14:26:17;31.00;1.00
3281;DHT22;1652;51.318;6.202;2022-08-14T14:28:53;31.10;1.00
3281;DHT22;1652;51.318;6.202;2022-08-14T14:31:27;31.10;1.00
3281;DHT22;1652;51.318;6.202;2022-08-14T14:33:58;31.10;1.00
3281;DHT22;1652;51.318;6.202;2022-08-14T14:36:28;31.00;1.00
3281;DHT22;1652;51.318;6.202;2022-08-14T14:38:59;31.00;1.00
3281;DHT22;1652;51.318;6.202;2022-08-14T14:41:46;30.90;1.00
3281;DHT22;1652;51.318;6.202;2022-08-14T14:44:27;31.00;1.00
3281;DHT22;1652;51.318;6.202;2022-08-14T14:46:58;30.80;1.00
3281;DHT22;1652;51.318;6.202;2022-08-14T14:49:27;30.80;1.00
3281;DHT22;1652;51.318;6.202;2022-08-14T14:52:18;30.90;1.00
3281;DHT22;1652;51.318;6.202;2022-08-14T14:54:55;30.80;1.00
3281;DHT22;1652;51.318;6.202;2022-08-14T14:57:26;30.80;1.00
3281;DHT22;1652;51.318;6.202;2022-08-14T15:00:04;30.80;1.00
3281;DHT22;1652;51.318;6.202;2022-08-14T15:02:37;30.80;1.00
3281;DHT22;1652;51.318;6.202;2022-08-14T15:05:05;31.00;1.00
3281;DHT22;1652;51.318;6.202;2022-08-14T15:07:37;31.10;1.00
3281;DHT22;1652;51.318;6.202;2022-08-14T15:10:09;31.00;1.00
3281;DHT22;1652;51.318;6.202;2022-08-14T15:12:57;30.90;1.00
3281;DHT22;1652;51.318;6.202;2022-08-14T15:15:29;31.20;1.00
3281;DHT22;1652;51.318;6.202;2022-08-14T15:17:58;31.20;1.00
3281;DHT22;1652;51.318;6.202;2022-08-14T15:20:27;31.10;1.00
3281;DHT22;1652;51.318;6.202;2022-08-14T15:22:58;31.20;1.00
3281;DHT22;1652;51.318;6.202;2022-08-14T15:25:39;31.10;1.00
3281;DHT22;1652;51.318;6.202;2022-08-14T15:28:07;31.00;1.00
3281;DHT22;1652;51.318;6.202;2022-08-14T15:30:39;30.90;1.00
3281;DHT22;1652;51.318;6.202;2022-08-14T15:33:07;30.90;1.00
3281;DHT22;1652;51.318;6.202;2022-08-14T15:35:35;31.00;1.00
3281;DHT22;1652;51.318;6.202;2022-08-14T15:38:11;31.00;1.00
3281;DHT22;1652;51.318;6.202;2022-08-14T15:40:43;31.10;1.00
3281;DHT22;1652;51.318;6.202;2022-08-14T15:43:17;31.20;1.00
3281;DHT22;1652;51.318;6.202;2022-08-14T15:45:44;31.20;1.00
3281;DHT22;1652;51.318;6.202;2022-08-14T15:48:11;31.30;1.00
3281;DHT22;1652;51.318;6.202;2022-08-14T15:50:48;31.20;1.00
3281;DHT22;1652;51.318;6.202;2022-08-14T15:53:17;31.20;1.00
3281;DHT22;1652;51.318;6.202;2022-08-14T15:55:45;31.20;1.00
3281;DHT22;1652;51.318;6.202;2022-08-14T15:58:13;31.30;1.00
3281;DHT22;1652;51.318;6.202;2022-08-14T16:00:40;31.30;1.00
3281;DHT22;1652;51.318;6.202;2022-08-14T16:03:26;31.50;1.00
3281;DHT22;1652;51.318;6.202;2022-08-14T16:06:04;31.50;1.00
3281;DHT22;1652;51.318;6.202;2022-08-14T16:08:37;31.50;1.00
3281;DHT22;1652;51.318;6.202;2022-08-14T16:11:08;31.50;1.00
3281;DHT22;1652;51.318;6.202;2022-08-14T16:13:36;31.50;1.00
3281;DHT22;1652;51.318;6.202;2022-08-14T16:19:05;31.40;1.00
3281;DHT22;1652;51.318;6.202;2022-08-14T16:21:38;31.30;1.00
3281;DHT22;1652;51.318;6.202;2022-08-14T16:24:06;31.20;1.00
3281;DHT22;1652;51.318;6.202;2022-08-14T16:26:56;31.20;1.00
3281;DHT22;1652;51.318;6.202;2022-08-14T16:29:31;31.10;1.00
3281;DHT22;1652;51.318;6.202;2022-08-14T16:32:01;31.00;1.00
3281;DHT22;1652;51.318;6.202;2022-08-14T16:34:49;30.90;1.00
3281;DHT22;1652;51.318;6.202;2022-08-14T16:37:22;30.80;1.00
3281;DHT22;1652;51.318;6.202;2022-08-14T16:40:10;30.70;1.00
3281;DHT22;1652;51.318;6.202;2022-08-14T16:42:41;30.60;1.00
3281;DHT22;1652;51.318;6.202;2022-08-14T16:45:29;30.70;1.00
3281;DHT22;1652;51.318;6.202;2022-08-14T16:47:59;30.60;1.00
3281;DHT22;1652;51.318;6.202;2022-08-14T16:50:26;30.50;1.00
3281;DHT22;1652;51.318;6.202;2022-08-14T16:53:09;30.50;1.00
3281;DHT22;1652;51.318;6.202;2022-08-14T16:55:42;30.40;1.00
3281;DHT22;1652;51.318;6.202;2022-08-14T16:58:21;30.40;1.00
3281;DHT22;1652;51.318;6.202;2022-08-14T17:01:14;30.10;1.00
3281;DHT22;1652;51.318;6.202;2022-08-14T17:04:00;29.90;1.00
3281;DHT22;1652;51.318;6.202;2022-08-14T17:06:39;30.00;1.00
3281;DHT22;1652;51.318;6.202;2022-08-14T17:09:31;30.00;1.00
3281;DHT22;1652;51.318;6.202;2022-08-14T17:12:12;29.90;1.00
3281;DHT22;1652;51.318;6.202;2022-08-14T17:22:57;29.40;1.00
3281;DHT22;1652;51.318;6.202;2022-08-14T17:25:31;29.40;1.00
3281;DHT22;1652;51.318;6.202;2022-08-14T17:28:13;29.50;1.00
3281;DHT22;1652;51.318;6.202;2022-08-14T17:31:02;29.50;1.00
3281;DHT22;1652;51.318;6.202;2022-08-14T17:33:34;29.50;1.00
3281;DHT22;1652;51.318;6.202;2022-08-14T17:36:22;29.50;1.00
3281;DHT22;1652;51.318;6.202;2022-08-14T17:39:05;29.40;1.00
3281;DHT22;1652;51.318;6.202;2022-08-14T17:41:40;29.20;1.00
3281;DHT22;1652;51.318;6.202;2022-08-14T17:44:17;29.00;1.00
3281;DHT22;1652;51.318;6.202;2022-08-14T17:46:51;28.90;1.00
3281;DHT22;1652;51.318;6.202;2022-08-14T17:49:43;28.60;1.00
3281;DHT22;1652;51.318;6.202;2022-08-14T17:52:16;28.50;1.00
3281;DHT22;1652;51.318;6.202;2022-08-14T17:55:05;28.50;1.00
3281;DHT22;1652;51.318;6.202;2022-08-14T17:57:33;28.60;1.00
3281;DHT22;1652;51.318;6.202;2022-08-14T18:00:12;28.60;1.00
3281;DHT22;1652;51.318;6.202;2022-08-14T18:02:41;28.60;1.00
3281;DHT22;1652;51.318;6.202;2022-08-14T18:05:17;28.60;1.00
3281;DHT22;1652;51.318;6.202;2022-08-14T18:08:04;28.60;1.00
3281;DHT22;1652;51.318;6.202;2022-08-14T18:10:53;28.50;1.00
3281;DHT22;1652;51.318;6.202;2022-08-14T18:13:23;28.50;1.00
3281;DHT22;1652;51.318;6.202;2022-08-14T18:16:12;28.40;1.00
3281;DHT22;1652;51.318;6.202;2022-08-14T18:18:48;28.40;1.00
3281;DHT22;1652;51.318;6.202;2022-08-14T18:21:17;28.30;1.00
3281;DHT22;1652;51.318;6.202;2022-08-14T18:24:04;28.20;1.00